sensor_id;sensor_type;location;lat;lon;timestamp;temperature;humidity
33841;DHT22;20142;28.494;-16.312;2022-09-27T00:03:37;21.30;83.60
33841;DHT22;20142;28.494;-16.312;2022-09-27T00:08:40;21.30;83.40
33841;DHT22;20142;28.494;-16.312;2022-09-27T00:13:42;21.30;83.50
33841;DHT22;20142;28.494;-16.312;2022-09-27T00:18:44;21.20;83.40
33841;DHT22;20142;28.494;-16.312;2022-09-27T00:23:45;21.20;83.70
33841;DHT22;20142;28.494;-16.312;2022-09-27T00:28:47;21.20;83.80
33841;DHT22;20142;28.494;-16.312;2022-09-27T00:33:51;21.20;84.10
33841;DHT22;20142;28.494;-16.312;2022-09-27T00:38:53;21.30;84.00
33841;DHT22;20142;28.494;-16.312;2022-09-27T00:44:01;21.20;83.80
33841;DHT22;20142;28.494;-16.312;2022-09-27T00:54:33;21.10;84.30
33841;DHT22;20142;28.494;-16.312;2022-09-27T00:59:49;20.90;85.00
33841;DHT22;20142;28.494;-16.312;2022-09-27T01:05:04;21.10;84.90
33841;DHT22;20142;28.494;-16.312;2022-09-27T01:10:07;21.10;84.80
33841;DHT22;20142;28.494;-16.312;2022-09-27T01:15:30;21.10;85.30
33841;DHT22;20142;28.494;-16.312;2022-09-27T01:26:15;21.10;85.30
33841;DHT22;20142;28.494;-16.312;2022-09-27T01:31:41;21.10;85.60
33841;DHT22;20142;28.494;-16.312;2022-09-27T01:48:00;21.10;85.80
33841;DHT22;20142;28.494;-16.312;2022-09-27T01:53:21;21.10;85.80
33841;DHT22;20142;28.494;-16.312;2022-09-27T01:58:28;21.10;86.10
33841;DHT22;20142;28.494;-16.312;2022-09-27T02:03:36;21.00;86.20
33841;DHT22;20142;28.494;-16.312;2022-09-27T02:13:52;21.10;86.20
33841;DHT22;20142;28.494;-16.312;2022-09-27T02:30:24;21.20;86.50
33841;DHT22;20142;28.494;-16.312;2022-09-27T02:35:30;21.20;86.60
33841;DHT22;20142;28.494;-16.312;2022-09-27T02:40:40;21.20;86.50
33841;DHT22;20142;28.494;-16.312;2022-09-27T02:51:24;21.20;86.80
33841;DHT22;20142;28.494;-16.312;2022-09-27T03:08:24;21.00;87.00
33841;DHT22;20142;28.494;-16.312;2022-09-27T03:13:26;21.10;87.30
33841;DHT22;20142;28.494;-16.312;2022-09-27T03:18:28;21.00;87.10
33841;DHT22;20142;28.494;-16.312;2022-09-27T03:23:30;20.90;87.10
33841;DHT22;20142;28.494;-16.312;2022-09-27T03:28:32;21.00;87.20
33841;DHT22;20142;28.494;-16.312;2022-09-27T03:33:33;20.90;87.90
33841;DHT22;20142;28.494;-16.312;2022-09-27T03:38:35;20.90;88.10
33841;DHT22;20142;28.494;-16.312;2022-09-27T03:43:37;21.00;87.50
33841;DHT22;20142;28.494;-16.312;2022-09-27T03:48:39;21.00;87.60
33841;DHT22;20142;28.494;-16.312;2022-09-27T03:53:42;21.00;87.50
33841;DHT22;20142;28.494;-16.312;2022-09-27T03:58:44;21.00;87.60
33841;DHT22;20142;28.494;-16.312;2022-09-27T04:03:46;21.00;87.60
33841;DHT22;20142;28.494;-16.312;2022-09-27T04:08:47;21.00;87.50
33841;DHT22;20142;28.494;-16.312;2022-09-27T04:13:50;21.00;87.50
33841;DHT22;20142;28.494;-16.312;2022-09-27T04:18:52;21.00;87.20
33841;DHT22;20142;28.494;-16.312;2022-09-27T04:23:53;20.90;87.70
33841;DHT22;20142;28.494;-16.312;2022-09-27T04:28:55;20.90;87.00
33841;DHT22;20142;28.494;-16.312;2022-09-27T04:33:57;20.80;87.70
33841;DHT22;20142;28.494;-16.312;2022-09-27T04:39:02;20.80;87.80
33841;DHT22;20142;28.494;-16.312;2022-09-27T04:44:05;20.90;88.10
33841;DHT22;20142;28.494;-16.312;2022-09-27T04:49:07;20.90;87.30
33841;DHT22;20142;28.494;-16.312;2022-09-27T04:54:09;20.90;87.60
33841;DHT22;20142;28.494;-16.312;2022-09-27T04:59:13;20.90;87.30
33841;DHT22;20142;28.494;-16.312;2022-09-27T05:04:15;20.90;87.60
33841;DHT22;20142;28.494;-16.312;2022-09-27T05:09:17;20.90;87.20
33841;DHT22;20142;28.494;-16.312;2022-09-27T05:14:18;20.90;86.80
33841;DHT22;20142;28.494;-16.312;2022-09-27T05:19:21;20.90;87.20
33841;DHT22;20142;28.494;-16.312;2022-09-27T05:24:23;20.90;87.10
33841;DHT22;20142;28.494;-16.312;2022-09-27T05:29:25;20.90;87.20
33841;DHT22;20142;28.494;-16.312;2022-09-27T05:34:26;20.90;87.00
33841;DHT22;20142;28.494;-16.312;2022-09-27T05:39:28;20.90;86.20
33841;DHT22;20142;28.494;-16.312;2022-09-27T05:44:30;20.60;86.60
33841;DHT22;20142;28.494;-16.312;2022-09-27T05:49:32;20.50;87.00
33841;DHT22;20142;28.494;-16.312;2022-09-27T05:54:34;20.60;87.10
33841;DHT22;20142;28.494;-16.312;2022-09-27T05:59:36;20.50;87.20
33841;DHT22;20142;28.494;-16.312;2022-09-27T06:04:37;20.60;87.30
33841;DHT22;20142;28.494;-16.312;2022-09-27T06:09:39;20.70;87.20
33841;DHT22;20142;28.494;-16.312;2022-09-27T06:14:40;20.50;87.10
33841;DHT22;20142;28.494;-16.312;2022-09-27T06:19:42;20.60;87.30
33841;DHT22;20142;28.494;-16.312;2022-09-27T06:24:44;20.60;87.30
33841;DHT22;20142;28.494;-16.312;2022-09-27T06:29:46;20.60;87.20
33841;DHT22;20142;28.494;-16.312;2022-09-27T06:34:47;20.50;87.20
33841;DHT22;20142;28.494;-16.312;2022-09-27T06:39:49;20.60;87.20
33841;DHT22;20142;28.494;-16.312;2022-09-27T06:44:52;20.60;87.20
33841;DHT22;20142;28.494;-16.312;2022-09-27T06:49:54;20.70;87.30
33841;DHT22;20142;28.494;-16.312;2022-09-27T06:54:56;20.60;87.00
33841;DHT22;20142;28.494;-16.312;2022-09-27T06:59:57;20.50;86.90
33841;DHT22;20142;28.494;-16.312;2022-09-27T07:05:19;20.40;86.90
33841;DHT22;20142;28.494;-16.312;2022-09-27T07:10:21;20.40;87.10
33841;DHT22;20142;28.494;-16.312;2022-09-27T07:15:22;20.50;86.90
33841;DHT22;20142;28.494;-16.312;2022-09-27T07:20:25;20.40;86.40
33841;DHT22;20142;28.494;-16.312;2022-09-27T07:25:27;20.30;86.30
33841;DHT22;20142;28.494;-16.312;2022-09-27T07:30:29;20.20;86.10
33841;DHT22;20142;28.494;-16.312;2022-09-27T07:35:31;20.30;86.70
33841;DHT22;20142;28.494;-16.312;2022-09-27T07:40:36;20.40;86.20
33841;DHT22;20142;28.494;-16.312;2022-09-27T07:45:38;20.50;86.00
33841;DHT22;20142;28.494;-16.312;2022-09-27T07:50:39;20.50;86.20
33841;DHT22;20142;28.494;-16.312;2022-09-27T07:55:41;20.60;85.40
33841;DHT22;20142;28.494;-16.312;2022-09-27T08:00:43;20.60;86.00
33841;DHT22;20142;28.494;-16.312;2022-09-27T08:05:46;20.80;85.80
33841;DHT22;20142;28.494;-16.312;2022-09-27T08:10:48;20.90;84.70
33841;DHT22;20142;28.494;-16.312;2022-09-27T08:15:49;21.00;84.00
33841;DHT22;20142;28.494;-16.312;2022-09-27T08:20:56;21.10;84.10
33841;DHT22;20142;28.494;-16.312;2022-09-27T08:25:58;21.20;83.80
33841;DHT22;20142;28.494;-16.312;2022-09-27T08:31:00;21.50;83.70
33841;DHT22;20142;28.494;-16.312;2022-09-27T08:36:01;21.90;83.00
33841;DHT22;20142;28.494;-16.312;2022-09-27T08:41:12;21.90;83.30
33841;DHT22;20142;28.494;-16.312;2022-09-27T08:52:00;22.10;82.10
33841;DHT22;20142;28.494;-16.312;2022-09-27T08:57:11;22.20;81.80
33841;DHT22;20142;28.494;-16.312;2022-09-27T09:02:23;22.40;81.50
33841;DHT22;20142;28.494;-16.312;2022-09-27T09:12:52;22.80;81.40
33841;DHT22;20142;28.494;-16.312;2022-09-27T09:29:00;23.30;80.80
33841;DHT22;20142;28.494;-16.312;2022-09-27T09:34:28;23.70;79.20
33841;DHT22;20142;28.494;-16.312;2022-09-27T09:55:34;23.90;78.00
33841;DHT22;20142;28.494;-16.312;2022-09-27T10:00:38;24.00;78.30
33841;DHT22;20142;28.494;-16.312;2022-09-27T10:05:43;24.10;78.20
33841;DHT22;20142;28.494;-16.312;2022-09-27T10:10:45;23.80;78.20
33841;DHT22;20142;28.494;-16.312;2022-09-27T10:15:58;23.60;78.80
33841;DHT22;20142;28.494;-16.312;2022-09-27T10:21:06;23.30;78.60
33841;DHT22;20142;28.494;-16.312;2022-09-27T10:26:12;23.10;79.00
33841;DHT22;20142;28.494;-16.312;2022-09-27T10:31:19;22.80;79.30
33841;DHT22;20142;28.494;-16.312;2022-09-27T10:36:31;23.00;79.30
33841;DHT22;20142;28.494;-16.312;2022-09-27T10:41:40;23.20;78.70
33841;DHT22;20142;28.494;-16.312;2022-09-27T10:46:43;23.20;79.20
33841;DHT22;20142;28.494;-16.312;2022-09-27T10:51:52;24.00;78.30
33841;DHT22;20142;28.494;-16.312;2022-09-27T10:57:20;24.70;77.70
33841;DHT22;20142;28.494;-16.312;2022-09-27T11:02:29;25.10;77.40
33841;DHT22;20142;28.494;-16.312;2022-09-27T11:07:46;25.30;76.80
33841;DHT22;20142;28.494;-16.312;2022-09-27T11:13:13;25.20;76.70
33841;DHT22;20142;28.494;-16.312;2022-09-27T11:24:06;25.40;76.50
33841;DHT22;20142;28.494;-16.312;2022-09-27T11:30:01;25.50;75.80
33841;DHT22;20142;28.494;-16.312;2022-09-27T11:41:21;25.20;75.10
33841;DHT22;20142;28.494;-16.312;2022-09-27T11:46:35;25.30;74.70
33841;DHT22;20142;28.494;-16.312;2022-09-27T11:57:11;25.50;74.20
33841;DHT22;20142;28.494;-16.312;2022-09-27T12:14:15;25.60;74.60
33841;DHT22;20142;28.494;-16.312;2022-09-27T12:19:45;25.50;74.40
33841;DHT22;20142;28.494;-16.312;2022-09-27T12:24:51;25.70;74.40
33841;DHT22;20142;28.494;-16.312;2022-09-27T12:29:53;25.80;73.70
33841;DHT22;20142;28.494;-16.312;2022-09-27T12:35:09;25.90;73.40
33841;DHT22;20142;28.494;-16.312;2022-09-27T12:40:36;26.20;73.50
33841;DHT22;20142;28.494;-16.312;2022-09-27T12:51:16;26.70;70.90
33841;DHT22;20142;28.494;-16.312;2022-09-27T13:13:10;25.80;71.00
33841;DHT22;20142;28.494;-16.312;2022-09-27T13:18:30;25.90;71.30
33841;DHT22;20142;28.494;-16.312;2022-09-27T13:23:53;25.90;70.30
33841;DHT22;20142;28.494;-16.312;2022-09-27T13:29:00;26.00;70.80
33841;DHT22;20142;28.494;-16.312;2022-09-27T13:34:03;26.20;70.70
33841;DHT22;20142;28.494;-16.312;2022-09-27T13:39:16;26.30;71.20
33841;DHT22;20142;28.494;-16.312;2022-09-27T14:00:53;26.90;67.20
33841;DHT22;20142;28.494;-16.312;2022-09-27T14:06:02;27.20;68.10
33841;DHT22;20142;28.494;-16.312;2022-09-27T14:11:28;27.60;68.20
33841;DHT22;20142;28.494;-16.312;2022-09-27T14:16:34;27.60;66.50
33841;DHT22;20142;28.494;-16.312;2022-09-27T14:21:44;27.60;67.70
33841;DHT22;20142;28.494;-16.312;2022-09-27T14:26:46;28.50;68.20
33841;DHT22;20142;28.494;-16.312;2022-09-27T14:32:09;31.40;65.70
33841;DHT22;20142;28.494;-16.312;2022-09-27T14:37:23;36.00;57.90
33841;DHT22;20142;28.494;-16.312;2022-09-27T14:42:27;38.20;55.80
33841;DHT22;20142;28.494;-16.312;2022-09-27T14:47:33;40.40;53.10
33841;DHT22;20142;28.494;-16.312;2022-09-27T14:52:34;42.10;50.00
33841;DHT22;20142;28.494;-16.312;2022-09-27T14:57:39;43.40;47.40
33841;DHT22;20142;28.494;-16.312;2022-09-27T15:03:06;45.00;45.00
33841;DHT22;20142;28.494;-16.312;2022-09-27T15:08:10;45.00;43.20
33841;DHT22;20142;28.494;-16.312;2022-09-27T15:13:16;45.10;42.40
33841;DHT22;20142;28.494;-16.312;2022-09-27T15:23:43;43.50;41.40
33841;DHT22;20142;28.494;-16.312;2022-09-27T15:28:48;40.70;42.00
33841;DHT22;20142;28.494;-16.312;2022-09-27T15:33:54;39.50;42.00
33841;DHT22;20142;28.494;-16.312;2022-09-27T15:39:06;38.70;42.90
33841;DHT22;20142;28.494;-16.312;2022-09-27T15:49:47;35.90;43.60
33841;DHT22;20142;28.494;-16.312;2022-09-27T15:54:49;33.40;46.90
33841;DHT22;20142;28.494;-16.312;2022-09-27T15:59:52;31.80;49.10
33841;DHT22;20142;28.494;-16.312;2022-09-27T16:04:54;30.80;50.50
33841;DHT22;20142;28.494;-16.312;2022-09-27T16:09:55;30.10;51.60
33841;DHT22;20142;28.494;-16.312;2022-09-27T16:14:57;29.50;52.00
33841;DHT22;20142;28.494;-16.312;2022-09-27T16:19:59;28.60;54.20
33841;DHT22;20142;28.494;-16.312;2022-09-27T16:25:01;28.30;54.70
33841;DHT22;20142;28.494;-16.312;2022-09-27T16:30:03;28.10;55.10
33841;DHT22;20142;28.494;-16.312;2022-09-27T16:35:05;27.50;56.00
33841;DHT22;20142;28.494;-16.312;2022-09-27T16:40:08;27.10;57.00
33841;DHT22;20142;28.494;-16.312;2022-09-27T16:45:10;26.70;57.90
33841;DHT22;20142;28.494;-16.312;2022-09-27T16:50:13;26.60;58.80
33841;DHT22;20142;28.494;-16.312;2022-09-27T16:55:37;26.40;59.00
33841;DHT22;20142;28.494;-16.312;2022-09-27T17:00:39;26.50;59.00
33841;DHT22;20142;28.494;-16.312;2022-09-27T17:05:42;26.70;59.60
33841;DHT22;20142;28.494;-16.312;2022-09-27T17:10:44;26.50;59.80
33841;DHT22;20142;28.494;-16.312;2022-09-27T17:15:46;26.30;60.70
33841;DHT22;20142;28.494;-16.312;2022-09-27T17:20:48;26.00;61.50
33841;DHT22;20142;28.494;-16.312;2022-09-27T17:25:50;25.70;61.70
33841;DHT22;20142;28.494;-16.312;2022-09-27T17:31:07;25.70;62.50
33841;DHT22;20142;28.494;-16.312;2022-09-27T17:36:13;25.50;62.70
33841;DHT22;20142;28.494;-16.312;2022-09-27T17:41:21;25.50;62.90
33841;DHT22;20142;28.494;-16.312;2022-09-27T17:46:33;25.70;62.50
33841;DHT22;20142;28.494;-16.312;2022-09-27T17:51:37;25.60;62.20
33841;DHT22;20142;28.494;-16.312;2022-09-27T17:56:41;26.80;62.20
33841;DHT22;20142;28.494;-16.312;2022-09-27T18:01:44;28.90;60.50
33841;DHT22;20142;28.494;-16.312;2022-09-27T18:06:47;29.60;58.50
33841;DHT22;20142;28.494;-16.312;2022-09-27T18:11:49;29.30;57.40
33841;DHT22;20142;28.494;-16.312;2022-09-27T18:16:51;27.60;56.90
33841;DHT22;20142;28.494;-16.312;2022-09-27T18:21:57;26.50;59.40
33841;DHT22;20142;28.494;-16.312;2022-09-27T18:27:03;25.60;61.10
33841;DHT22;20142;28.494;-16.312;2022-09-27T18:32:05;24.90;62.00
33841;DHT22;20142;28.494;-16.312;2022-09-27T18:37:06;24.40;62.70
33841;DHT22;20142;28.494;-16.312;2022-09-27T18:42:08;23.90;63.60
33841;DHT22;20142;28.494;-16.312;2022-09-27T18:47:09;23.50;65.80
33841;DHT22;20142;28.494;-16.312;2022-09-27T18:52:11;23.20;66.20
33841;DHT22;20142;28.494;-16.312;2022-09-27T18:57:13;23.10;67.00
33841;DHT22;20142;28.494;-16.312;2022-09-27T19:02:14;22.90;67.50
33841;DHT22;20142;28.494;-16.312;2022-09-27T19:07:16;22.70;68.10
33841;DHT22;20142;28.494;-16.312;2022-09-27T19:12:17;22.40;68.60
33841;DHT22;20142;28.494;-16.312;2022-09-27T19:17:19;22.30;69.30
33841;DHT22;20142;28.494;-16.312;2022-09-27T19:22:21;22.30;69.70
33841;DHT22;20142;28.494;-16.312;2022-09-27T19:27:23;22.20;70.10
33841;DHT22;20142;28.494;-16.312;2022-09-27T19:32:26;22.00;70.70
33841;DHT22;20142;28.494;-16.312;2022-09-27T19:37:28;22.00;70.80
33841;DHT22;20142;28.494;-16.312;2022-09-27T19:42:29;21.80;71.30
33841;DHT22;20142;28.494;-16.312;2022-09-27T19:47:32;21.80;72.10
33841;DHT22;20142;28.494;-16.312;2022-09-27T19:52:34;21.60;73.10
33841;DHT22;20142;28.494;-16.312;2022-09-27T19:57:36;21.80;72.70
33841;DHT22;20142;28.494;-16.312;2022-09-27T20:02:37;21.70;73.30
33841;DHT22;20142;28.494;-16.312;2022-09-27T20:07:39;21.60;73.60
33841;DHT22;20142;28.494;-16.312;2022-09-27T20:12:41;21.60;73.90
33841;DHT22;20142;28.494;-16.312;2022-09-27T20:17:44;21.70;74.40
33841;DHT22;20142;28.494;-16.312;2022-09-27T20:22:46;21.60;74.10
33841;DHT22;20142;28.494;-16.312;2022-09-27T20:27:48;21.40;74.10
33841;DHT22;20142;28.494;-16.312;2022-09-27T20:32:51;21.40;75.10
33841;DHT22;20142;28.494;-16.312;2022-09-27T20:38:13;21.50;75.00
33841;DHT22;20142;28.494;-16.312;2022-09-27T20:43:14;21.40;75.50
33841;DHT22;20142;28.494;-16.312;2022-09-27T20:48:16;21.30;75.40
33841;DHT22;20142;28.494;-16.312;2022-09-27T20:53:18;21.30;75.70
33841;DHT22;20142;28.494;-16.312;2022-09-27T20:58:20;21.10;76.00
33841;DHT22;20142;28.494;-16.312;2022-09-27T21:03:22;21.10;76.30
33841;DHT22;20142;28.494;-16.312;2022-09-27T21:08:28;21.20;76.60
33841;DHT22;20142;28.494;-16.312;2022-09-27T21:13:30;21.30;76.80
33841;DHT22;20142;28.494;-16.312;2022-09-27T21:18:32;21.20;76.80
33841;DHT22;20142;28.494;-16.312;2022-09-27T21:23:36;21.10;76.70
33841;DHT22;20142;28.494;-16.312;2022-09-27T21:28:53;21.10;77.20
33841;DHT22;20142;28.494;-16.312;2022-09-27T21:33:57;21.20;77.20
33841;DHT22;20142;28.494;-16.312;2022-09-27T21:39:01;21.10;77.50
33841;DHT22;20142;28.494;-16.312;2022-09-27T21:44:05;21.00;77.80
33841;DHT22;20142;28.494;-16.312;2022-09-27T21:49:08;21.20;77.80
33841;DHT22;20142;28.494;-16.312;2022-09-27T21:54:14;21.10;77.90
33841;DHT22;20142;28.494;-16.312;2022-09-27T21:59:16;21.10;78.40
33841;DHT22;20142;28.494;-16.312;2022-09-27T22:04:18;21.10;78.30
33841;DHT22;20142;28.494;-16.312;2022-09-27T22:09:20;21.10;78.30
33841;DHT22;20142;28.494;-16.312;2022-09-27T22:14:22;21.00;78.50
33841;DHT22;20142;28.494;-16.312;2022-09-27T22:19:24;21.00;79.00
33841;DHT22;20142;28.494;-16.312;2022-09-27T22:24:25;21.00;79.20
33841;DHT22;20142;28.494;-16.312;2022-09-27T22:29:27;20.90;79.90
33841;DHT22;20142;28.494;-16.312;2022-09-27T22:34:29;20.90;79.40
33841;DHT22;20142;28.494;-16.312;2022-09-27T22:39:31;20.80;80.20
33841;DHT22;20142;28.494;-16.312;2022-09-27T22:44:34;20.80;80.50
33841;DHT22;20142;28.494;-16.312;2022-09-27T22:49:35;21.00;80.30
33841;DHT22;20142;28.494;-16.312;2022-09-27T22:54:37;21.00;80.30
33841;DHT22;20142;28.494;-16.312;2022-09-27T22:59:38;21.00;80.30
33841;DHT22;20142;28.494;-16.312;2022-09-27T23:04:40;20.90;80.00
33841;DHT22;20142;28.494;-16.312;2022-09-27T23:09:42;20.90;81.00
33841;DHT22;20142;28.494;-16.312;2022-09-27T23:14:43;21.00;80.80
33841;DHT22;20142;28.494;-16.312;2022-09-27T23:19:45;21.10;80.50
33841;DHT22;20142;28.494;-16.312;2022-09-27T23:24:47;21.00;80.70
33841;DHT22;20142;28.494;-16.312;2022-09-27T23:29:48;21.00;80.70
33841;DHT22;20142;28.494;-16.312;2022-09-27T23:34:50;21.00;80.60
33841;DHT22;20142;28.494;-16.312;2022-09-27T23:39:52;20.90;80.80
33841;DHT22;20142;28.494;-16.312;2022-09-27T23:44:54;20.90;81.70
33841;DHT22;20142;28.494;-16.312;2022-09-27T23:49:55;20.90;81.00
33841;DHT22;20142;28.494;-16.312;2022-09-27T23:54:58;20.80;82.00
